West Homestead, Pennsylvania
Current Conditions -  °F | °C
As of 12:53 PM on Friday 21 Nov 2014 (Local Time) from KAGC Reporting Station
Overcast Overcast  
Wind Chill: -9°   Ceiling: 4100
Heat Index: -4°   Visibility: 10mi
Dew Point: -14°   Wind: 7mph
Humidity: 48%   Direction: 340°NNW
Pressure: 30.43"   Gusts: NA
Location:  40.3948°N, 79.9074°W
Report Text: KAGC 211753Z 34006KT 10SM OVC041 M04/M14 A3043 RMK AO2 SLP330 T10441139 11039 21078 51006
Loading
Personal Weather Stations






























Interactive Weather Map New forecast layout! Learn more

10-Day Weather Forecast

Advertisements
Track Severe Weather on mobile